createdAt,value
2023-02-08T00:01:47.526Z,17.77
2023-02-08T00:04:19.355Z,12.93
2023-02-08T00:06:51.172Z,15.30
2023-02-08T00:09:23.113Z,17.20
2023-02-08T00:11:54.842Z,13.80
2023-02-08T00:14:26.674Z,12.43
2023-02-08T00:16:58.414Z,18.00
2023-02-08T00:19:30.170Z,16.77
2023-02-08T00:22:01.951Z,19.60
2023-02-08T00:24:33.795Z,15.10
2023-02-08T00:27:05.500Z,14.37
2023-02-08T00:29:37.704Z,15.60
2023-02-08T00:32:11.556Z,15.73
2023-02-08T00:34:43.380Z,12.03
2023-02-08T00:37:15.207Z,13.60
2023-02-08T00:39:46.956Z,11.90
2023-02-08T00:42:18.729Z,17.93
2023-02-08T00:44:51.490Z,14.73
2023-02-08T00:47:23.593Z,12.60
2023-02-08T00:49:55.884Z,18.70
2023-02-08T00:52:29.685Z,12.30
2023-02-08T00:55:02.454Z,14.93
2023-02-08T00:57:35.415Z,21.53
2023-02-08T01:00:09.118Z,13.33
2023-02-08T01:02:40.916Z,13.73
2023-02-08T01:05:13.737Z,15.97
2023-02-08T01:07:45.405Z,16.27
2023-02-08T01:10:17.162Z,14.13
2023-02-08T01:12:48.896Z,14.83
2023-02-08T01:15:20.644Z,16.33
2023-02-08T01:17:55.668Z,19.47
2023-02-08T01:20:27.540Z,15.87
2023-02-08T01:22:59.241Z,11.00
2023-02-08T01:25:30.927Z,15.73
2023-02-08T01:28:02.599Z,13.10
2023-02-08T01:30:34.398Z,13.63
2023-02-08T01:33:06.173Z,13.47
2023-02-08T01:35:37.976Z,17.70
2023-02-08T01:38:09.699Z,11.97
2023-02-08T01:40:41.629Z,16.83
2023-02-08T01:43:24.604Z,11.97
2023-02-08T01:45:56.423Z,16.17
2023-02-08T01:48:35.701Z,12.53
2023-02-08T01:51:15.087Z,17.40
2023-02-08T01:53:48.969Z,18.27
2023-02-08T01:56:31.639Z,11.83
2023-02-08T01:59:08.503Z,10.27
2023-02-08T02:01:41.671Z,13.90
2023-02-08T02:04:14.924Z,13.67
2023-02-08T02:06:51.103Z,14.20
2023-02-08T02:09:36.578Z,13.87
2023-02-08T02:12:09.778Z,16.53
2023-02-08T02:14:42.361Z,10.50
2023-02-08T02:17:16.665Z,22.00
2023-02-08T02:20:23.878Z,11.83
2023-02-08T02:23:42.885Z,13.83
2023-02-08T02:26:48.748Z,15.10
2023-02-08T02:29:35.483Z,13.40
2023-02-08T02:32:21.321Z,11.50
2023-02-08T02:35:06.134Z,12.17
2023-02-08T02:37:52.073Z,17.40
2023-02-08T02:40:42.674Z,13.47
2023-02-08T02:43:43.980Z,11.30
2023-02-08T02:46:37.386Z,15.37
2023-02-08T02:49:17.290Z,15.97
2023-02-08T02:52:11.049Z,17.80
2023-02-08T02:54:55.966Z,11.50
2023-02-08T02:57:33.332Z,15.50
2023-02-08T03:00:14.480Z,14.63
2023-02-08T03:02:58.721Z,10.20
2023-02-08T03:05:32.708Z,16.67
2023-02-08T03:08:43.925Z,13.90
2023-02-08T03:11:26.393Z,15.90
2023-02-08T03:14:15.814Z,13.43
2023-02-08T03:16:59.588Z,25.43
2023-02-08T03:19:57.282Z,19.27
2023-02-08T03:22:50.413Z,22.33
2023-02-08T03:25:28.427Z,12.30
2023-02-08T03:28:04.729Z,14.40
2023-02-08T03:31:06.602Z,14.80
2023-02-08T03:34:16.787Z,10.37
2023-02-08T03:36:58.455Z,14.57
2023-02-08T03:39:32.872Z,17.17
2023-02-08T03:42:11.111Z,14.73
2023-02-08T03:45:07.421Z,18.97
2023-02-08T03:47:42.619Z,11.80
2023-02-08T03:50:17.412Z,18.30
2023-02-08T03:52:52.151Z,15.27
2023-02-08T03:55:30.843Z,13.37
2023-02-08T03:58:26.055Z,16.17
2023-02-08T04:01:32.890Z,16.90
2023-02-08T04:04:05.250Z,14.23
2023-02-08T04:06:37.027Z,17.17
2023-02-08T04:09:08.908Z,18.17
2023-02-08T04:11:40.656Z,16.27
2023-02-08T04:14:12.405Z,15.53
2023-02-08T04:16:44.113Z,15.70
2023-02-08T04:19:15.842Z,13.87
2023-02-08T04:21:47.629Z,19.70
2023-02-08T04:24:20.216Z,13.60
2023-02-08T04:26:52.576Z,17.57
2023-02-08T04:29:24.270Z,14.10
2023-02-08T04:31:56.016Z,13.40
2023-02-08T04:34:27.947Z,20.20
2023-02-08T04:36:59.628Z,13.50
2023-02-08T04:39:31.378Z,10.70
2023-02-08T04:42:03.516Z,13.53
2023-02-08T04:44:35.183Z,13.60
2023-02-08T04:47:07.227Z,16.27
2023-02-08T04:49:39.021Z,16.77
2023-02-08T04:52:10.825Z,11.83
2023-02-08T04:54:42.536Z,16.80
2023-02-08T04:57:15.086Z,13.67
2023-02-08T04:59:46.875Z,18.33
2023-02-08T05:02:18.609Z,13.73
2023-02-08T05:04:50.483Z,20.77
2023-02-08T05:07:22.233Z,14.40
2023-02-08T05:09:55.012Z,12.97
2023-02-08T05:12:32.500Z,19.80
2023-02-08T05:15:04.620Z,13.03
2023-02-08T05:17:36.882Z,12.63
2023-02-08T05:20:09.515Z,20.80
2023-02-08T05:22:41.276Z,17.20
2023-02-08T05:25:13.063Z,14.50
2023-02-08T05:27:44.867Z,15.23
2023-02-08T05:30:16.957Z,14.40
2023-02-08T05:32:48.737Z,13.70
2023-02-08T05:35:20.484Z,14.33
2023-02-08T05:37:54.189Z,14.97
2023-02-08T05:40:26.050Z,13.60
2023-02-08T05:42:57.742Z,13.23
2023-02-08T05:45:29.502Z,14.27
2023-02-08T05:48:01.212Z,15.37
2023-02-08T05:50:33.074Z,15.30
2023-02-08T05:53:04.849Z,16.73
2023-02-08T05:55:36.729Z,10.60
2023-02-08T05:58:08.483Z,18.70
2023-02-08T06:00:40.766Z,15.90
2023-02-08T06:03:12.828Z,13.30
2023-02-08T06:05:44.792Z,15.53
2023-02-08T06:08:16.630Z,14.33
2023-02-08T06:10:49.792Z,14.27
2023-02-08T06:13:21.657Z,18.33
2023-02-08T06:15:53.332Z,18.23
2023-02-08T06:18:25.184Z,14.83
2023-02-08T06:20:56.985Z,15.87
2023-02-08T06:23:28.665Z,13.47
2023-02-08T06:26:00.373Z,14.87
2023-02-08T06:28:32.263Z,16.63
2023-02-08T06:31:04.102Z,11.63
2023-02-08T06:33:35.794Z,12.67
2023-02-08T06:36:07.816Z,17.40
2023-02-08T06:38:39.721Z,18.10
2023-02-08T06:41:11.496Z,20.00
2023-02-08T06:43:43.217Z,15.07
2023-02-08T06:46:15.007Z,15.03
2023-02-08T06:48:46.833Z,23.33
2023-02-08T06:51:18.722Z,15.10
2023-02-08T06:53:50.945Z,17.57
2023-02-08T06:56:22.664Z,15.60
2023-02-08T06:58:54.388Z,15.53
2023-02-08T07:01:26.154Z,17.27
2023-02-08T07:03:57.868Z,19.40
2023-02-08T07:06:29.625Z,13.30
2023-02-08T07:09:02.625Z,18.60
2023-02-08T07:11:34.448Z,15.77
2023-02-08T07:14:06.321Z,15.80
2023-02-08T07:16:38.177Z,18.85
2023-02-08T07:19:09.991Z,16.67
2023-02-08T07:21:41.701Z,20.43
2023-02-08T07:24:13.377Z,15.60
2023-02-08T07:26:45.071Z,18.37
2023-02-08T07:29:16.951Z,16.87
2023-02-08T07:31:48.725Z,15.27
2023-02-08T07:34:21.949Z,21.73
2023-02-08T07:36:53.835Z,14.07
2023-02-08T07:39:26.715Z,14.87
2023-02-08T07:41:59.261Z,16.60
2023-02-08T07:44:31.003Z,12.47
2023-02-08T07:47:02.784Z,15.73
2023-02-08T07:49:34.803Z,18.13
2023-02-08T07:52:06.601Z,15.20
2023-02-08T07:54:39.578Z,16.03
2023-02-08T07:57:11.259Z,16.87
2023-02-08T07:59:42.972Z,15.73
2023-02-08T08:02:15.696Z,15.03
2023-02-08T08:04:48.499Z,19.60
2023-02-08T08:07:20.329Z,18.37
2023-02-08T08:09:52.056Z,24.07
2023-02-08T08:12:24.577Z,17.20
2023-02-08T08:14:56.328Z,21.07
2023-02-08T08:17:29.931Z,16.70
2023-02-08T08:20:01.882Z,17.97
2023-02-08T08:22:33.570Z,20.50
2023-02-08T08:25:05.775Z,19.57
2023-02-08T08:27:38.068Z,12.20
2023-02-08T08:30:12.425Z,17.80
2023-02-08T08:32:44.161Z,20.75
2023-02-08T08:35:16.048Z,19.33
2023-02-08T08:37:47.798Z,15.70
2023-02-08T08:40:20.252Z,14.67
2023-02-08T08:42:52.019Z,18.00
2023-02-08T08:45:24.224Z,24.33
2023-02-08T08:47:56.004Z,20.00
2023-02-08T08:50:27.745Z,18.53
2023-02-08T08:52:59.552Z,15.27
2023-02-08T08:55:31.284Z,19.20
2023-02-08T08:58:02.976Z,17.87
2023-02-08T09:00:34.688Z,20.03
2023-02-08T09:03:06.362Z,20.43
2023-02-08T09:05:38.127Z,17.40
2023-02-08T09:08:09.866Z,20.10
2023-02-08T09:10:41.837Z,24.03
2023-02-08T09:13:19.229Z,16.03
2023-02-08T09:15:50.954Z,22.80
2023-02-08T09:18:22.709Z,21.57
2023-02-08T09:20:54.421Z,18.03
2023-02-08T09:23:26.192Z,21.10
2023-02-08T09:25:57.910Z,13.57
2023-02-08T09:28:29.692Z,23.40
2023-02-08T09:31:13.165Z,17.50
2023-02-08T09:33:46.311Z,18.20
2023-02-08T09:36:19.284Z,17.30
2023-02-08T09:38:54.065Z,18.10
2023-02-08T09:41:31.319Z,17.77
2023-02-08T09:44:33.759Z,13.30
2023-02-08T09:47:17.349Z,17.73
2023-02-08T09:50:14.942Z,18.60
2023-02-08T09:52:49.710Z,15.00
2023-02-08T09:55:30.166Z,23.77
2023-02-08T09:58:26.174Z,19.90
2023-02-08T10:00:58.104Z,15.30
2023-02-08T10:03:36.945Z,18.00
2023-02-08T10:06:18.493Z,19.60
2023-02-08T10:08:52.384Z,17.13
2023-02-08T10:11:40.435Z,17.17
2023-02-08T10:14:39.858Z,18.77
2023-02-08T10:17:43.510Z,17.30
2023-02-08T10:20:33.815Z,19.67
2023-02-08T10:23:21.166Z,18.00
2023-02-08T10:25:59.845Z,17.43
2023-02-08T10:29:03.392Z,17.63
2023-02-08T10:32:02.878Z,19.63
2023-02-08T10:34:45.388Z,18.17
2023-02-08T10:37:19.902Z,17.93
2023-02-08T10:39:52.160Z,19.00
2023-02-08T10:42:27.824Z,21.60
2023-02-08T10:45:24.000Z,18.13
2023-02-08T10:48:00.928Z,24.10
2023-02-08T10:50:37.124Z,17.37
2023-02-08T10:53:17.216Z,17.00
2023-02-08T10:55:50.419Z,15.33
2023-02-08T10:58:26.104Z,15.80
2023-02-08T11:00:58.479Z,17.00
2023-02-08T11:03:30.568Z,21.07
2023-02-08T11:06:03.304Z,15.73
2023-02-08T11:08:55.571Z,17.57
2023-02-08T11:11:33.178Z,15.47
2023-02-08T11:14:14.960Z,12.33
2023-02-08T11:16:52.411Z,17.90
2023-02-08T11:19:35.219Z,15.93
2023-02-08T11:22:07.439Z,14.80
2023-02-08T11:24:41.485Z,14.93
2023-02-08T11:27:28.250Z,14.87
2023-02-08T11:30:21.537Z,12.43
2023-02-08T11:33:23.316Z,14.00
2023-02-08T11:36:00.728Z,13.27
2023-02-08T11:38:35.452Z,11.47
2023-02-08T11:41:15.809Z,16.97
2023-02-08T11:44:03.770Z,10.60
2023-02-08T11:46:37.077Z,16.07
2023-02-08T11:49:23.181Z,12.85
2023-02-08T11:51:55.221Z,15.90
2023-02-08T11:55:12.178Z,15.83
2023-02-08T11:58:00.072Z,12.90
2023-02-08T12:00:35.264Z,12.63
2023-02-08T12:03:18.325Z,17.93
2023-02-08T12:06:03.170Z,11.03
2023-02-08T12:08:55.358Z,9.63
2023-02-08T12:11:44.191Z,10.33
2023-02-08T12:14:34.263Z,16.80
2023-02-08T12:17:34.872Z,14.93
2023-02-08T12:20:23.176Z,15.60
2023-02-08T12:23:13.923Z,14.77
2023-02-08T12:25:57.884Z,8.93
2023-02-08T12:28:50.888Z,9.73
2023-02-08T12:31:32.038Z,10.17
2023-02-08T12:34:22.485Z,12.67
2023-02-08T12:37:35.755Z,10.23
2023-02-08T12:40:43.429Z,7.63
2023-02-08T12:43:20.883Z,9.30
2023-02-08T12:46:04.204Z,13.07
2023-02-08T12:48:55.816Z,17.13
2023-02-08T12:51:27.477Z,14.07
2023-02-08T12:54:05.046Z,7.90
2023-02-08T12:56:53.616Z,12.17
2023-02-08T12:59:40.891Z,7.70
2023-02-08T13:02:28.998Z,11.70
2023-02-08T13:05:06.641Z,7.00
2023-02-08T13:07:44.102Z,9.97
2023-02-08T13:10:37.381Z,12.27
2023-02-08T13:13:15.195Z,9.90
2023-02-08T13:15:50.396Z,9.27
2023-02-08T13:18:28.394Z,7.43
2023-02-08T13:21:16.409Z,5.67
2023-02-08T13:23:52.717Z,7.27
2023-02-08T13:26:31.774Z,7.90
2023-02-08T13:29:05.252Z,6.73
2023-02-08T13:31:46.953Z,8.87
2023-02-08T13:34:24.543Z,8.00
2023-02-08T13:37:00.439Z,7.33
2023-02-08T13:39:42.810Z,6.23
2023-02-08T13:42:42.848Z,8.80
2023-02-08T13:45:27.496Z,6.03
2023-02-08T13:48:03.457Z,10.17
2023-02-08T13:50:35.096Z,14.10
2023-02-08T13:53:06.871Z,10.00
2023-02-08T13:55:45.854Z,8.70
2023-02-08T13:58:38.101Z,10.40
2023-02-08T14:01:27.623Z,10.50
2023-02-08T14:04:08.267Z,8.77
2023-02-08T14:06:45.904Z,10.57
2023-02-08T14:09:38.229Z,9.10
2023-02-08T14:12:16.923Z,11.13
2023-02-08T14:15:16.641Z,12.87
2023-02-08T14:17:50.530Z,11.63
2023-02-08T14:20:33.375Z,14.37
2023-02-08T14:23:20.449Z,8.50
2023-02-08T14:25:55.321Z,11.43
2023-02-08T14:28:38.443Z,11.57
2023-02-08T14:31:12.008Z,8.40
2023-02-08T14:33:53.333Z,15.07
2023-02-08T14:36:28.192Z,13.90
2023-02-08T14:39:34.529Z,11.37
2023-02-08T14:42:09.555Z,14.03
2023-02-08T14:44:41.628Z,16.23
2023-02-08T14:47:25.901Z,12.53
2023-02-08T14:50:27.605Z,22.90
2023-02-08T14:53:15.408Z,15.50
2023-02-08T14:55:56.292Z,14.53
2023-02-08T14:58:42.391Z,17.70
2023-02-08T15:01:19.065Z,14.77
2023-02-08T15:03:55.823Z,15.63
2023-02-08T15:06:39.415Z,15.50
2023-02-08T15:09:28.487Z,17.97
2023-02-08T15:12:07.511Z,17.90
2023-02-08T15:14:41.233Z,22.00
2023-02-08T15:17:26.521Z,15.43
2023-02-08T15:19:59.788Z,15.30
2023-02-08T15:22:36.926Z,18.00
2023-02-08T15:25:33.477Z,13.83
2023-02-08T15:28:19.604Z,20.13
2023-02-08T15:31:15.890Z,17.87
2023-02-08T15:33:48.253Z,21.73
2023-02-08T15:36:33.186Z,14.60
2023-02-08T15:39:16.256Z,16.07
2023-02-08T15:41:49.118Z,14.57
2023-02-08T15:44:36.679Z,24.73
2023-02-08T15:47:18.197Z,13.43
2023-02-08T15:49:53.400Z,18.03
2023-02-08T15:52:29.485Z,23.63
2023-02-08T15:55:01.391Z,17.70
2023-02-08T15:57:54.593Z,18.70
2023-02-08T16:00:33.220Z,19.73
2023-02-08T16:03:09.451Z,17.63
2023-02-08T16:05:41.489Z,19.47
2023-02-08T16:08:23.627Z,19.30
2023-02-08T16:11:08.159Z,21.77
2023-02-08T16:13:46.199Z,22.33
2023-02-08T16:16:42.117Z,20.80
2023-02-08T16:19:21.109Z,20.37
2023-02-08T16:21:55.343Z,18.70
2023-02-08T16:24:28.210Z,21.77
2023-02-08T16:27:04.537Z,18.53
2023-02-08T16:29:41.769Z,15.33
2023-02-08T16:32:28.132Z,19.50
2023-02-08T16:35:10.404Z,22.50
2023-02-08T16:37:42.411Z,21.57
2023-02-08T16:40:49.858Z,22.43
2023-02-08T16:43:26.313Z,25.85
2023-02-08T16:46:26.093Z,27.67
2023-02-08T16:48:58.004Z,27.50
2023-02-08T16:51:32.848Z,27.37
2023-02-08T16:54:07.586Z,23.50
2023-02-08T16:56:41.601Z,20.80
2023-02-08T16:59:13.829Z,31.10
2023-02-08T17:01:48.025Z,20.20
2023-02-08T17:04:19.748Z,25.30
2023-02-08T17:06:52.085Z,25.90
2023-02-08T17:09:23.774Z,19.07
2023-02-08T17:11:55.544Z,24.60
2023-02-08T17:14:27.386Z,26.20
2023-02-08T17:16:59.140Z,23.27
2023-02-08T17:19:30.757Z,25.13
2023-02-08T17:22:02.534Z,26.70
2023-02-08T17:24:34.256Z,29.45
2023-02-08T17:27:06.303Z,25.77
2023-02-08T17:29:38.087Z,30.17
2023-02-08T17:32:09.927Z,27.50
2023-02-08T17:34:41.637Z,28.42
2023-02-08T17:37:13.438Z,21.90
2023-02-08T17:39:45.846Z,25.67
2023-02-08T17:42:17.948Z,29.07
2023-02-08T17:44:49.780Z,24.10
2023-02-08T17:47:21.536Z,23.23
2023-02-08T17:49:53.350Z,22.70
2023-02-08T17:52:25.142Z,24.53
2023-02-08T17:54:57.011Z,41.53
2023-02-08T17:57:32.129Z,30.17
2023-02-08T18:00:09.181Z,26.27
2023-02-08T18:02:52.736Z,32.60
2023-02-08T18:05:27.305Z,30.40
2023-02-08T18:07:59.112Z,29.90
2023-02-08T18:10:30.882Z,28.43
2023-02-08T18:13:02.568Z,26.97
2023-02-08T18:15:34.496Z,30.83
2023-02-08T18:18:06.240Z,36.20
2023-02-08T18:20:42.699Z,29.73
2023-02-08T18:23:14.453Z,34.37
2023-02-08T18:25:46.338Z,26.90
2023-02-08T18:28:18.220Z,37.10
2023-02-08T18:30:50.027Z,39.55
2023-02-08T18:33:22.776Z,37.65
2023-02-08T18:35:54.560Z,36.57
2023-02-08T18:38:26.656Z,35.13
2023-02-08T18:40:58.793Z,32.77
2023-02-08T18:43:30.482Z,34.77
2023-02-08T18:46:05.608Z,31.10
2023-02-08T18:48:38.886Z,31.30
2023-02-08T18:51:12.791Z,32.27
2023-02-08T18:53:50.838Z,32.57
2023-02-08T18:56:24.382Z,29.90
2023-02-08T18:58:59.811Z,25.90
2023-02-08T19:01:31.592Z,28.53
2023-02-08T19:04:03.863Z,25.97
2023-02-08T19:06:37.065Z,31.97
2023-02-08T19:09:08.905Z,33.77
2023-02-08T19:11:40.745Z,31.67
2023-02-08T19:14:15.725Z,26.70
2023-02-08T19:16:47.496Z,30.83
2023-02-08T19:19:19.306Z,27.07
2023-02-08T19:21:51.021Z,28.90
2023-02-08T19:24:24.203Z,31.35
2023-02-08T19:26:56.055Z,30.37
2023-02-08T19:29:27.944Z,27.47
2023-02-08T19:32:01.297Z,26.87
2023-02-08T19:34:32.983Z,24.77
2023-02-08T19:37:04.838Z,26.73
2023-02-08T19:39:36.566Z,32.47
2023-02-08T19:42:08.509Z,34.33
2023-02-08T19:44:41.355Z,29.73
2023-02-08T19:47:13.111Z,29.03
2023-02-08T19:49:44.929Z,27.37
2023-02-08T19:52:20.602Z,28.20
2023-02-08T19:54:52.962Z,26.00
2023-02-08T19:57:25.679Z,32.00
2023-02-08T19:59:57.501Z,27.77
2023-02-08T20:02:29.609Z,34.22
2023-02-08T20:05:01.446Z,31.80
2023-02-08T20:07:33.197Z,32.20
2023-02-08T20:10:05.245Z,27.67
2023-02-08T20:12:36.925Z,26.93
2023-02-08T20:15:08.921Z,33.53
2023-02-08T20:17:41.186Z,56.37
2023-02-08T20:20:12.913Z,29.33
2023-02-08T20:22:44.724Z,31.60
2023-02-08T20:25:16.492Z,27.83
2023-02-08T20:27:48.394Z,31.63
2023-02-08T20:30:20.877Z,30.50
2023-02-08T20:32:53.636Z,28.50
2023-02-08T20:35:25.374Z,28.93
2023-02-08T20:37:57.102Z,27.63
2023-02-08T20:40:28.816Z,37.67
2023-02-08T20:43:00.560Z,31.13
2023-02-08T20:45:32.342Z,32.50
2023-02-08T20:48:04.260Z,36.40
2023-02-08T20:50:36.010Z,25.93
2023-02-08T20:53:07.781Z,28.60
2023-02-08T20:55:43.500Z,30.37
2023-02-08T20:58:17.434Z,31.47
2023-02-08T21:00:49.304Z,27.97
2023-02-08T21:03:23.288Z,29.70
2023-02-08T21:05:55.016Z,32.07
2023-02-08T21:08:26.797Z,22.60
2023-02-08T21:11:10.027Z,32.00
2023-02-08T21:13:41.797Z,29.53
2023-02-08T21:16:14.485Z,29.57
2023-02-08T21:18:47.051Z,32.70
2023-02-08T21:21:19.808Z,27.27
2023-02-08T21:23:51.609Z,28.97
2023-02-08T21:26:24.554Z,30.80
2023-02-08T21:28:58.665Z,18.20
2023-02-08T21:31:30.627Z,29.33
2023-02-08T21:34:03.443Z,28.33
2023-02-08T21:36:35.248Z,30.40
2023-02-08T21:39:06.969Z,24.83
2023-02-08T21:41:38.965Z,26.10
2023-02-08T21:44:11.123Z,29.50
2023-02-08T21:46:42.799Z,31.03
2023-02-08T21:49:32.949Z,35.33
2023-02-08T21:52:23.510Z,31.57
2023-02-08T21:54:55.220Z,30.27
2023-02-08T21:57:29.479Z,30.93
2023-02-08T22:00:02.069Z,34.50
2023-02-08T22:02:45.328Z,27.33
2023-02-08T22:05:42.817Z,36.17
2023-02-08T22:08:14.704Z,36.10
2023-02-08T22:10:57.595Z,31.10
2023-02-08T22:13:33.515Z,31.03
2023-02-08T22:16:08.030Z,29.03
2023-02-08T22:18:41.410Z,25.53
2023-02-08T22:21:13.192Z,23.37
2023-02-08T22:23:44.980Z,27.10
2023-02-08T22:26:16.759Z,33.65
2023-02-08T22:28:48.634Z,35.57
2023-02-08T22:31:20.582Z,30.10
2023-02-08T22:33:53.382Z,36.07
2023-02-08T22:36:25.098Z,32.70
2023-02-08T22:38:56.966Z,29.40
2023-02-08T22:41:28.746Z,29.93
2023-02-08T22:44:00.600Z,30.93
2023-02-08T22:46:32.322Z,28.33
2023-02-08T22:49:04.827Z,24.60
2023-02-08T22:51:37.343Z,30.03
2023-02-08T22:54:09.014Z,27.10
2023-02-08T22:56:48.763Z,22.80
2023-02-08T22:59:21.889Z,26.13
2023-02-08T23:01:55.903Z,31.95
2023-02-08T23:04:29.931Z,36.67
2023-02-08T23:07:01.919Z,31.93
2023-02-08T23:09:34.713Z,30.43
2023-02-08T23:12:06.978Z,30.07
2023-02-08T23:14:39.755Z,32.13
2023-02-08T23:17:11.666Z,28.40
2023-02-08T23:19:43.416Z,28.33
2023-02-08T23:22:15.206Z,33.67
2023-02-08T23:24:46.916Z,35.60
2023-02-08T23:27:18.648Z,34.90
2023-02-08T23:29:50.312Z,30.23
2023-02-08T23:32:22.088Z,36.23
2023-02-08T23:34:53.792Z,31.40
2023-02-08T23:37:25.534Z,29.17
2023-02-08T23:39:57.816Z,34.90
2023-02-08T23:42:30.617Z,28.23
2023-02-08T23:45:02.323Z,35.50
2023-02-08T23:47:34.596Z,25.53
2023-02-08T23:50:07.800Z,37.03
2023-02-08T23:52:39.600Z,37.17
2023-02-08T23:55:11.417Z,33.57
2023-02-08T23:57:43.128Z,37.00
